createdAt,value
2022-11-26T00:01:17.325Z,88.30
2022-11-26T00:03:44.910Z,87.50
2022-11-26T00:06:33.714Z,87.40
2022-11-26T00:09:01.230Z,87.40
2022-11-26T00:11:28.237Z,87.10
2022-11-26T00:13:55.217Z,86.90
2022-11-26T00:16:22.171Z,86.80
2022-11-26T00:18:49.106Z,86.70
2022-11-26T00:21:23.196Z,86.60
2022-11-26T00:23:51.161Z,86.50
2022-11-26T00:26:21.158Z,86.50
2022-11-26T00:29:01.314Z,86.50
2022-11-26T00:31:29.305Z,86.50
2022-11-26T00:33:56.648Z,86.30
2022-11-26T00:36:30.120Z,86.20
2022-11-26T00:39:04.176Z,86.00
2022-11-26T00:41:38.224Z,85.70
2022-11-26T00:44:22.550Z,85.60
2022-11-26T00:46:50.892Z,85.50
2022-11-26T00:49:18.629Z,85.40
2022-11-26T00:51:46.650Z,85.60
2022-11-26T00:54:17.279Z,85.80
2022-11-26T00:56:44.952Z,86.20
2022-11-26T00:59:19.635Z,86.50
2022-11-26T01:01:46.712Z,86.70
2022-11-26T01:04:13.842Z,86.80
2022-11-26T01:06:43.988Z,87.00
2022-11-26T01:09:19.835Z,87.00
2022-11-26T01:11:52.366Z,87.00
2022-11-26T01:14:22.902Z,86.80
2022-11-26T01:16:50.877Z,86.70
2022-11-26T01:19:17.867Z,86.50
2022-11-26T01:21:44.846Z,86.40
2022-11-26T01:24:11.789Z,86.20
2022-11-26T01:26:44.022Z,86.20
2022-11-26T01:29:18.988Z,86.30
2022-11-26T01:31:46.210Z,86.40
2022-11-26T01:34:13.763Z,86.40
2022-11-26T01:36:41.902Z,86.40
2022-11-26T01:39:20.214Z,86.40
2022-11-26T01:41:52.922Z,86.30
2022-11-26T01:44:26.641Z,86.10
2022-11-26T01:46:54.406Z,86.10
2022-11-26T01:49:23.265Z,86.00
2022-11-26T01:51:59.211Z,86.00
2022-11-26T01:54:26.569Z,85.90
2022-11-26T01:56:56.177Z,85.60
2022-11-26T01:59:38.195Z,85.50
2022-11-26T02:02:05.661Z,85.40
2022-11-26T02:04:37.924Z,85.20
2022-11-26T02:07:05.722Z,85.00
2022-11-26T02:09:33.191Z,84.80
2022-11-26T02:12:00.531Z,84.70
2022-11-26T02:14:35.204Z,84.50
2022-11-26T02:17:20.951Z,84.50
2022-11-26T02:20:31.560Z,84.40
2022-11-26T02:23:06.447Z,84.40
2022-11-26T02:25:42.695Z,84.30
2022-11-26T02:28:26.120Z,84.20
2022-11-26T02:31:05.667Z,84.10
2022-11-26T02:33:42.754Z,84.00
2022-11-26T02:36:22.631Z,83.90
2022-11-26T02:38:50.771Z,83.70
2022-11-26T02:41:17.727Z,83.60
2022-11-26T02:43:45.132Z,83.60
2022-11-26T02:46:17.601Z,83.50
2022-11-26T02:48:48.285Z,83.60
2022-11-26T02:51:20.855Z,83.80
2022-11-26T02:53:49.985Z,83.90
2022-11-26T02:56:21.482Z,83.90
2022-11-26T02:58:50.726Z,84.00
2022-11-26T03:01:34.425Z,84.00
2022-11-26T03:04:07.657Z,84.00
2022-11-26T03:06:35.583Z,84.10
2022-11-26T03:09:02.710Z,84.00
2022-11-26T03:11:29.747Z,83.80
2022-11-26T03:13:56.845Z,83.80
2022-11-26T03:16:23.879Z,83.50
2022-11-26T03:18:50.916Z,83.60
2022-11-26T03:21:17.902Z,83.60
2022-11-26T03:23:44.904Z,83.50
2022-11-26T03:26:11.903Z,83.50
2022-11-26T03:28:38.894Z,83.50
2022-11-26T03:31:06.032Z,83.40
2022-11-26T03:33:32.984Z,83.40
2022-11-26T03:35:59.975Z,83.30
2022-11-26T03:38:27.115Z,83.20
2022-11-26T03:41:03.480Z,83.00
2022-11-26T03:43:30.469Z,82.80
2022-11-26T03:45:57.636Z,82.60
2022-11-26T03:48:24.723Z,82.60
2022-11-26T03:50:51.740Z,82.50
2022-11-26T03:53:18.758Z,82.50
2022-11-26T03:55:45.747Z,82.30
2022-11-26T03:58:12.690Z,82.20
2022-11-26T04:00:39.696Z,82.10
2022-11-26T04:03:06.723Z,82.00
2022-11-26T04:05:33.763Z,81.80
2022-11-26T04:08:00.728Z,81.80
2022-11-26T04:10:27.701Z,81.90
2022-11-26T04:12:54.788Z,82.10
2022-11-26T04:15:21.813Z,82.20
2022-11-26T04:17:48.765Z,82.30
2022-11-26T04:20:15.914Z,82.40
2022-11-26T04:22:42.899Z,82.50
2022-11-26T04:25:09.932Z,82.50
2022-11-26T04:27:36.900Z,82.60
2022-11-26T04:30:06.285Z,82.60
2022-11-26T04:32:33.351Z,82.70
2022-11-26T04:35:00.353Z,82.90
2022-11-26T04:37:27.333Z,83.00
2022-11-26T04:39:54.269Z,83.10
2022-11-26T04:42:21.219Z,83.20
2022-11-26T04:44:48.191Z,83.20
2022-11-26T04:47:15.598Z,83.10
2022-11-26T04:49:42.841Z,83.10
2022-11-26T04:52:10.169Z,82.90
2022-11-26T04:54:37.523Z,82.80
2022-11-26T04:57:04.921Z,82.70
2022-11-26T04:59:31.886Z,82.70
2022-11-26T05:01:59.668Z,82.80
2022-11-26T05:04:27.947Z,82.80
2022-11-26T05:06:55.369Z,82.90
2022-11-26T05:09:22.824Z,83.20
2022-11-26T05:11:49.828Z,83.20
2022-11-26T05:14:16.806Z,83.20
2022-11-26T05:16:43.875Z,83.10
2022-11-26T05:19:10.886Z,83.10
2022-11-26T05:21:37.858Z,82.90
2022-11-26T05:24:05.228Z,82.90
2022-11-26T05:26:32.227Z,82.80
2022-11-26T05:28:59.242Z,82.80
2022-11-26T05:31:26.255Z,82.90
2022-11-26T05:33:53.252Z,82.80
2022-11-26T05:36:20.408Z,82.60
2022-11-26T05:38:47.399Z,82.50
2022-11-26T05:41:14.386Z,82.30
2022-11-26T05:43:41.302Z,82.10
2022-11-26T05:46:09.146Z,82.10
2022-11-26T05:48:36.175Z,82.10
2022-11-26T05:51:04.221Z,82.10
2022-11-26T05:53:31.241Z,82.30
2022-11-26T05:55:58.423Z,82.40
2022-11-26T05:58:25.740Z,82.60
2022-11-26T06:00:52.992Z,82.60
2022-11-26T06:03:20.695Z,82.50
2022-11-26T06:05:47.880Z,82.50
2022-11-26T06:08:14.923Z,82.50
2022-11-26T06:10:43.136Z,82.50
2022-11-26T06:13:10.131Z,82.50
2022-11-26T06:15:37.090Z,82.60
2022-11-26T06:18:04.114Z,83.20
2022-11-26T06:20:31.147Z,82.30
2022-11-26T06:22:58.134Z,82.00
2022-11-26T06:25:25.431Z,81.90
2022-11-26T06:27:52.353Z,82.50
2022-11-26T06:30:19.351Z,81.60
2022-11-26T06:32:46.345Z,81.60
2022-11-26T06:35:13.306Z,81.60
2022-11-26T06:37:40.390Z,81.90
2022-11-26T06:40:08.096Z,81.90
2022-11-26T06:42:35.215Z,82.10
2022-11-26T06:45:02.284Z,82.30
2022-11-26T06:47:29.213Z,82.40
2022-11-26T06:49:56.110Z,82.50
2022-11-26T06:52:23.056Z,82.50
2022-11-26T06:54:51.193Z,82.50
2022-11-26T06:57:18.825Z,82.40
2022-11-26T06:59:45.819Z,82.50
2022-11-26T07:02:12.887Z,82.60
2022-11-26T07:04:40.134Z,82.80
2022-11-26T07:07:07.289Z,83.00
2022-11-26T07:09:36.821Z,83.00
2022-11-26T07:12:04.230Z,82.90
2022-11-26T07:14:31.166Z,82.70
2022-11-26T07:16:58.121Z,82.50
2022-11-26T07:19:25.254Z,82.30
2022-11-26T07:21:52.177Z,83.30
2022-11-26T07:24:19.121Z,81.60
2022-11-26T07:26:46.097Z,77.80
2022-11-26T07:29:13.186Z,74.30
2022-11-26T07:31:40.136Z,71.10
2022-11-26T07:34:07.085Z,67.90
2022-11-26T07:36:34.254Z,64.60
2022-11-26T07:39:02.495Z,60.80
2022-11-26T07:41:30.550Z,57.60
2022-11-26T07:43:57.501Z,54.10
2022-11-26T07:46:26.131Z,52.20
2022-11-26T07:48:55.633Z,50.60
2022-11-26T07:51:33.227Z,48.10
2022-11-26T07:54:05.924Z,46.10
2022-11-26T07:56:33.268Z,45.00
2022-11-26T07:59:01.306Z,44.50
2022-11-26T08:01:31.585Z,42.00
2022-11-26T08:04:00.732Z,41.10
2022-11-26T08:06:30.395Z,41.00
2022-11-26T08:08:59.958Z,40.30
2022-11-26T08:11:30.459Z,39.40
2022-11-26T08:14:00.178Z,38.50
2022-11-26T08:16:29.005Z,38.30
2022-11-26T08:19:00.424Z,38.80
2022-11-26T08:21:27.489Z,38.90
2022-11-26T08:23:54.739Z,38.20
2022-11-26T08:26:27.538Z,38.50
2022-11-26T08:29:00.692Z,38.60
2022-11-26T08:31:28.493Z,39.30
2022-11-26T08:34:03.250Z,39.30
2022-11-26T08:36:31.386Z,41.10
2022-11-26T08:39:00.114Z,42.70
2022-11-26T08:41:27.457Z,44.10
2022-11-26T08:44:09.611Z,44.60
2022-11-26T08:46:38.688Z,45.10
2022-11-26T08:49:07.152Z,45.40
2022-11-26T08:51:34.668Z,45.40
2022-11-26T08:54:02.183Z,44.90
2022-11-26T08:56:29.696Z,45.00
2022-11-26T08:58:56.958Z,45.40
2022-11-26T09:01:29.444Z,46.30
2022-11-26T09:03:59.288Z,46.80
2022-11-26T09:06:29.360Z,47.10
2022-11-26T09:09:12.780Z,46.50
2022-11-26T09:11:54.081Z,46.10
2022-11-26T09:14:25.054Z,44.30
2022-11-26T09:16:53.829Z,41.40
2022-11-26T09:19:21.481Z,41.20
2022-11-26T09:21:49.118Z,39.70
2022-11-26T09:24:17.190Z,37.00
2022-11-26T09:26:44.688Z,36.40
2022-11-26T09:29:19.216Z,35.30
2022-11-26T09:32:15.429Z,36.50
2022-11-26T09:34:33.842Z,37.60
2022-11-26T09:37:00.779Z,37.30
2022-11-26T09:39:27.906Z,34.30
2022-11-26T09:42:05.399Z,32.10
2022-11-26T09:44:32.297Z,30.20
2022-11-26T09:47:20.075Z,30.20
2022-11-26T09:49:46.894Z,31.10
2022-11-26T09:52:16.010Z,31.70
2022-11-26T09:54:43.923Z,29.70
2022-11-26T09:57:23.523Z,29.30
2022-11-26T09:59:51.994Z,28.20
2022-11-26T10:02:19.453Z,29.00
2022-11-26T10:04:47.023Z,27.20
2022-11-26T10:07:41.460Z,28.00
2022-11-26T10:10:13.084Z,27.10
2022-11-26T10:13:18.057Z,27.20
2022-11-26T10:16:08.877Z,26.90
2022-11-26T10:18:44.426Z,26.50
2022-11-26T10:21:11.391Z,26.90
2022-11-26T10:24:20.681Z,25.90
2022-11-26T10:26:48.260Z,25.60
2022-11-26T10:29:33.464Z,25.10
2022-11-26T10:32:02.880Z,24.30
2022-11-26T10:34:39.560Z,23.80
2022-11-26T10:37:06.836Z,24.00
2022-11-26T10:39:33.687Z,24.80
2022-11-26T10:42:04.474Z,24.40
2022-11-26T10:44:31.322Z,22.60
2022-11-26T10:46:58.863Z,23.20
2022-11-26T10:49:29.604Z,23.30
2022-11-26T10:51:58.555Z,23.50
2022-11-26T10:54:28.431Z,23.80
2022-11-26T10:56:56.173Z,23.70
2022-11-26T10:59:30.956Z,24.20
2022-11-26T11:02:02.792Z,24.40
2022-11-26T11:04:31.367Z,24.80
2022-11-26T11:06:58.398Z,24.90
2022-11-26T11:09:25.718Z,24.30
2022-11-26T11:12:07.863Z,24.30
2022-11-26T11:14:39.608Z,24.20
2022-11-26T11:17:24.024Z,25.00
2022-11-26T11:19:51.724Z,24.70
2022-11-26T11:22:21.945Z,24.00
2022-11-26T11:24:49.069Z,23.80
2022-11-26T11:27:27.167Z,24.20
2022-11-26T11:29:59.574Z,24.40
2022-11-26T11:32:33.179Z,24.50
2022-11-26T11:35:21.289Z,24.80
2022-11-26T11:37:49.454Z,24.60
2022-11-26T11:40:20.523Z,24.70
2022-11-26T11:42:49.497Z,24.80
2022-11-26T11:45:28.075Z,24.40
2022-11-26T11:47:57.569Z,24.60
2022-11-26T11:50:29.990Z,23.90
2022-11-26T11:53:00.211Z,23.20
2022-11-26T11:55:36.569Z,24.10
2022-11-26T11:58:26.403Z,24.50
2022-11-26T12:00:57.163Z,24.40
2022-11-26T12:03:27.194Z,24.70
2022-11-26T12:06:00.140Z,25.20
2022-11-26T12:08:26.918Z,25.20
2022-11-26T12:10:53.677Z,25.40
2022-11-26T12:13:22.025Z,25.30
2022-11-26T12:15:49.015Z,24.70
2022-11-26T12:18:22.073Z,25.40
2022-11-26T12:20:48.840Z,25.20
2022-11-26T12:23:22.830Z,25.20
2022-11-26T12:26:00.805Z,24.00
2022-11-26T12:28:29.343Z,24.50
2022-11-26T12:31:04.201Z,24.80
2022-11-26T12:33:43.080Z,24.40
2022-11-26T12:36:16.665Z,24.10
2022-11-26T12:38:47.393Z,24.80
2022-11-26T12:41:19.932Z,24.40
2022-11-26T12:43:47.082Z,24.70
2022-11-26T12:46:26.518Z,24.20
2022-11-26T12:49:19.584Z,24.90
2022-11-26T12:52:06.950Z,24.80
2022-11-26T12:54:39.540Z,24.90
2022-11-26T12:57:26.913Z,25.20
2022-11-26T13:00:00.612Z,25.60
2022-11-26T13:02:32.720Z,25.30
2022-11-26T13:04:59.934Z,25.70
2022-11-26T13:07:44.126Z,25.10
2022-11-26T13:10:11.127Z,25.20
2022-11-26T13:12:42.633Z,25.60
2022-11-26T13:15:17.479Z,25.80
2022-11-26T13:17:45.805Z,25.70
2022-11-26T13:20:31.038Z,25.80
2022-11-26T13:23:07.003Z,25.90
2022-11-26T13:25:33.920Z,26.80
2022-11-26T13:28:04.183Z,26.60
2022-11-26T13:30:31.188Z,26.90
2022-11-26T13:33:07.265Z,26.80
2022-11-26T13:35:34.146Z,26.90
2022-11-26T13:38:10.864Z,28.00
2022-11-26T13:41:01.344Z,27.60
2022-11-26T13:43:49.982Z,27.00
2022-11-26T13:46:22.109Z,27.20
2022-11-26T13:49:00.059Z,27.30
2022-11-26T13:51:37.983Z,27.70
2022-11-26T13:54:09.022Z,28.50
2022-11-26T13:56:37.248Z,28.80
2022-11-26T13:59:18.485Z,29.50
2022-11-26T14:01:47.300Z,30.00
2022-11-26T14:04:23.113Z,30.50
2022-11-26T14:07:10.235Z,31.20
2022-11-26T14:09:43.174Z,32.30
2022-11-26T14:12:10.875Z,33.30
2022-11-26T14:14:38.699Z,33.90
2022-11-26T14:17:08.602Z,35.20
2022-11-26T14:19:41.285Z,34.60
2022-11-26T14:22:08.092Z,34.90
2022-11-26T14:24:53.306Z,35.80
2022-11-26T14:27:24.307Z,36.30
2022-11-26T14:30:14.329Z,36.60
2022-11-26T14:32:44.250Z,37.40
2022-11-26T14:35:29.275Z,38.40
2022-11-26T14:37:59.874Z,39.30
2022-11-26T14:40:33.307Z,40.20
2022-11-26T14:43:26.842Z,41.20
2022-11-26T14:46:16.106Z,42.10
2022-11-26T14:48:48.234Z,43.10
2022-11-26T14:51:26.430Z,43.80
2022-11-26T14:53:54.744Z,44.70
2022-11-26T14:56:24.713Z,45.40
2022-11-26T14:58:58.442Z,46.30
2022-11-26T15:01:26.871Z,47.50
2022-11-26T15:04:01.096Z,47.30
2022-11-26T15:06:34.984Z,47.90
2022-11-26T15:09:15.342Z,49.10
2022-11-26T15:11:49.334Z,50.70
2022-11-26T15:14:29.939Z,51.10
2022-11-26T15:17:02.758Z,52.10
2022-11-26T15:19:34.801Z,52.60
2022-11-26T15:22:07.074Z,53.30
2022-11-26T15:24:34.431Z,54.20
2022-11-26T15:27:01.378Z,54.60
2022-11-26T15:29:30.803Z,55.20
2022-11-26T15:31:58.422Z,55.80
2022-11-26T15:34:26.799Z,56.90
2022-11-26T15:36:53.842Z,56.90
2022-11-26T15:39:38.995Z,57.50
2022-11-26T15:42:23.934Z,58.70
2022-11-26T15:44:50.990Z,58.60
2022-11-26T15:47:22.633Z,58.80
2022-11-26T15:49:55.146Z,59.30
2022-11-26T15:52:26.400Z,59.40
2022-11-26T15:55:14.694Z,59.70
2022-11-26T15:57:43.480Z,60.10
2022-11-26T16:00:38.440Z,59.90
2022-11-26T16:03:36.135Z,60.60
2022-11-26T16:06:06.645Z,60.70
2022-11-26T16:08:34.439Z,60.40
2022-11-26T16:11:04.090Z,60.50
2022-11-26T16:13:34.903Z,60.60
2022-11-26T16:16:12.828Z,60.60
2022-11-26T16:18:59.365Z,60.70
2022-11-26T16:21:30.291Z,61.50
2022-11-26T16:24:05.691Z,61.30
2022-11-26T16:26:52.540Z,61.60
2022-11-26T16:29:19.698Z,61.90
2022-11-26T16:31:46.918Z,61.70
2022-11-26T16:34:14.135Z,62.10
2022-11-26T16:36:42.802Z,62.30
2022-11-26T16:39:12.648Z,62.40
2022-11-26T16:41:39.595Z,62.50
2022-11-26T16:44:07.110Z,62.60
2022-11-26T16:46:38.489Z,62.70
2022-11-26T16:49:05.597Z,63.10
2022-11-26T16:51:32.678Z,63.10
2022-11-26T16:53:59.611Z,63.20
2022-11-26T16:56:37.419Z,63.40
2022-11-26T16:59:07.101Z,64.40
2022-11-26T17:01:35.191Z,63.60
2022-11-26T17:04:02.132Z,63.80
2022-11-26T17:06:33.769Z,64.20
2022-11-26T17:09:01.654Z,64.30
2022-11-26T17:11:28.645Z,64.60
2022-11-26T17:13:55.749Z,64.50
2022-11-26T17:16:24.039Z,64.50
2022-11-26T17:18:51.922Z,64.60
2022-11-26T17:21:18.915Z,64.60
2022-11-26T17:23:46.653Z,64.60
2022-11-26T17:26:21.025Z,64.60
2022-11-26T17:28:48.959Z,64.80
2022-11-26T17:31:16.372Z,64.70
2022-11-26T17:33:43.458Z,64.90
2022-11-26T17:36:22.035Z,65.00
2022-11-26T17:38:49.452Z,65.30
2022-11-26T17:41:17.155Z,65.30
2022-11-26T17:43:44.282Z,65.30
2022-11-26T17:46:21.028Z,65.50
2022-11-26T17:48:49.320Z,65.70
2022-11-26T17:51:16.896Z,65.70
2022-11-26T17:53:45.128Z,65.70
2022-11-26T17:56:23.422Z,65.90
2022-11-26T17:58:51.177Z,65.90
2022-11-26T18:01:18.856Z,65.80
2022-11-26T18:03:46.794Z,65.80
2022-11-26T18:06:18.501Z,65.90
2022-11-26T18:08:46.050Z,66.00
2022-11-26T18:11:15.284Z,65.90
2022-11-26T18:13:42.664Z,66.20
2022-11-26T18:16:09.828Z,66.00
2022-11-26T18:18:36.867Z,66.00
2022-11-26T18:21:03.885Z,66.10
2022-11-26T18:23:30.910Z,66.20
2022-11-26T18:25:58.192Z,66.30
2022-11-26T18:28:25.247Z,66.40
2022-11-26T18:30:58.297Z,66.50
2022-11-26T18:33:25.436Z,66.70
2022-11-26T18:35:54.908Z,66.70
2022-11-26T18:38:21.871Z,67.60
2022-11-26T18:40:58.664Z,66.80
2022-11-26T18:43:26.283Z,67.10
2022-11-26T18:45:53.244Z,67.00
2022-11-26T18:48:20.197Z,67.00
2022-11-26T18:50:56.310Z,67.00
2022-11-26T18:53:23.261Z,67.10
2022-11-26T18:55:50.668Z,67.00
2022-11-26T18:58:18.588Z,67.10
2022-11-26T19:00:46.395Z,67.20
2022-11-26T19:03:14.475Z,67.10
2022-11-26T19:05:45.818Z,67.10
2022-11-26T19:08:16.346Z,67.00
2022-11-26T19:10:43.680Z,66.90
2022-11-26T19:13:10.626Z,66.80
2022-11-26T19:15:45.572Z,66.70
2022-11-26T19:18:13.439Z,66.80
2022-11-26T19:20:49.179Z,66.70
2022-11-26T19:23:16.853Z,66.80
2022-11-26T19:25:43.874Z,66.60
2022-11-26T19:28:15.634Z,66.50
2022-11-26T19:30:43.708Z,66.40
2022-11-26T19:33:10.824Z,66.30
2022-11-26T19:35:41.073Z,66.20
2022-11-26T19:38:08.055Z,66.20
2022-11-26T19:40:35.058Z,66.20
2022-11-26T19:43:02.002Z,66.20
2022-11-26T19:45:29.196Z,66.30
2022-11-26T19:47:56.305Z,66.40
2022-11-26T19:50:23.309Z,66.40
2022-11-26T19:52:50.225Z,66.50
2022-11-26T19:55:17.618Z,66.50
2022-11-26T19:57:45.601Z,66.50
2022-11-26T20:00:13.403Z,66.50
2022-11-26T20:02:41.026Z,67.30
2022-11-26T20:05:09.119Z,66.40
2022-11-26T20:07:36.352Z,66.40
2022-11-26T20:10:04.247Z,66.50
2022-11-26T20:12:31.717Z,66.40
2022-11-26T20:14:59.577Z,66.30
2022-11-26T20:17:26.606Z,66.10
2022-11-26T20:19:54.201Z,65.90
2022-11-26T20:22:21.561Z,65.80
2022-11-26T20:24:48.654Z,65.70
2022-11-26T20:27:15.675Z,65.70
2022-11-26T20:29:42.776Z,65.70
2022-11-26T20:32:10.334Z,65.60
2022-11-26T20:34:37.514Z,66.50
2022-11-26T20:37:04.774Z,65.60
2022-11-26T20:39:33.666Z,65.70
2022-11-26T20:42:00.555Z,65.80
2022-11-26T20:44:28.646Z,65.80
2022-11-26T20:46:57.006Z,65.70
2022-11-26T20:49:24.251Z,65.70
2022-11-26T20:51:51.226Z,65.50
2022-11-26T20:54:18.170Z,65.40
2022-11-26T20:56:45.157Z,65.20
2022-11-26T20:59:12.160Z,65.00
2022-11-26T21:01:39.649Z,64.90
2022-11-26T21:04:06.977Z,64.80
2022-11-26T21:06:35.251Z,64.80
2022-11-26T21:09:04.844Z,64.70
2022-11-26T21:11:31.894Z,64.80
2022-11-26T21:14:00.079Z,64.90
2022-11-26T21:16:28.523Z,64.90
2022-11-26T21:18:56.271Z,65.00
2022-11-26T21:21:24.736Z,65.00
2022-11-26T21:23:52.172Z,65.20
2022-11-26T21:26:25.627Z,65.20
2022-11-26T21:28:57.945Z,65.30
2022-11-26T21:31:26.227Z,65.30
2022-11-26T21:34:01.985Z,65.30
2022-11-26T21:36:31.130Z,65.40
2022-11-26T21:38:58.576Z,65.50
2022-11-26T21:41:26.619Z,65.50
2022-11-26T21:43:54.069Z,65.60
2022-11-26T21:46:24.203Z,65.60
2022-11-26T21:48:55.743Z,65.80
2022-11-26T21:51:25.070Z,65.80
2022-11-26T21:53:54.382Z,66.60
2022-11-26T21:56:24.254Z,66.70
2022-11-26T21:58:51.699Z,65.80
2022-11-26T22:01:27.528Z,65.80
2022-11-26T22:03:56.851Z,65.80
2022-11-26T22:06:24.243Z,65.70
2022-11-26T22:08:51.506Z,65.60
2022-11-26T22:11:24.878Z,65.50
2022-11-26T22:13:52.780Z,65.50
2022-11-26T22:16:21.405Z,65.50
2022-11-26T22:18:49.455Z,65.60
2022-11-26T22:21:19.338Z,65.80
2022-11-26T22:23:46.633Z,66.00
2022-11-26T22:26:13.734Z,66.20
2022-11-26T22:28:41.152Z,66.30
2022-11-26T22:31:14.040Z,66.30
2022-11-26T22:33:41.579Z,66.50
2022-11-26T22:36:09.182Z,66.60
2022-11-26T22:38:37.541Z,66.60
2022-11-26T22:41:07.972Z,66.70
2022-11-26T22:43:35.200Z,66.70
2022-11-26T22:46:06.673Z,66.70
2022-11-26T22:48:34.814Z,66.80
2022-11-26T22:51:02.493Z,66.90
2022-11-26T22:53:29.862Z,67.00
2022-11-26T22:55:58.700Z,67.10
2022-11-26T22:58:27.668Z,67.30
2022-11-26T23:00:59.820Z,67.30
2022-11-26T23:03:28.454Z,67.30
2022-11-26T23:05:55.954Z,67.20
2022-11-26T23:08:23.272Z,67.10
2022-11-26T23:10:50.470Z,67.20
2022-11-26T23:13:18.024Z,67.20
2022-11-26T23:15:46.930Z,67.20
2022-11-26T23:18:16.225Z,67.30
2022-11-26T23:20:44.063Z,67.30
2022-11-26T23:23:11.121Z,67.30
2022-11-26T23:25:39.623Z,67.20
2022-11-26T23:28:07.424Z,67.30
2022-11-26T23:30:35.786Z,67.30
2022-11-26T23:33:03.007Z,67.30
2022-11-26T23:35:29.982Z,67.40
2022-11-26T23:37:56.934Z,67.30
2022-11-26T23:40:24.299Z,67.40
2022-11-26T23:42:51.508Z,67.40
2022-11-26T23:45:18.750Z,67.40
2022-11-26T23:47:45.787Z,67.50
2022-11-26T23:50:12.849Z,67.60
2022-11-26T23:52:39.819Z,67.80
2022-11-26T23:55:07.168Z,67.90
2022-11-26T23:57:34.678Z,67.90
